createdAt,value
2022-10-22T00:00:54.078Z,59.97
2022-10-22T00:03:21.625Z,56.23
2022-10-22T00:05:49.483Z,58.57
2022-10-22T00:08:17.078Z,57.73
2022-10-22T00:10:44.675Z,64.70
2022-10-22T00:13:13.841Z,59.17
2022-10-22T00:15:41.397Z,59.07
2022-10-22T00:18:09.091Z,59.53
2022-10-22T00:20:36.714Z,58.27
2022-10-22T00:23:04.315Z,61.03
2022-10-22T00:25:32.223Z,66.13
2022-10-22T00:27:59.758Z,66.43
2022-10-22T00:30:30.095Z,60.90
2022-10-22T00:32:57.682Z,61.53
2022-10-22T00:35:25.371Z,66.10
2022-10-22T00:37:52.897Z,63.80
2022-10-22T00:40:20.517Z,63.20
2022-10-22T00:42:48.057Z,58.87
2022-10-22T00:45:19.981Z,61.90
2022-10-22T00:47:52.734Z,64.50
2022-10-22T00:50:24.804Z,64.83
2022-10-22T00:52:52.779Z,67.47
2022-10-22T00:55:21.630Z,62.83
2022-10-22T00:57:49.919Z,60.50
2022-10-22T01:00:18.376Z,66.60
2022-10-22T01:02:46.442Z,64.27
2022-10-22T01:05:15.434Z,60.00
2022-10-22T01:07:46.783Z,64.03
2022-10-22T01:10:25.724Z,64.30
2022-10-22T01:13:05.325Z,61.30
2022-10-22T01:15:41.214Z,63.03
2022-10-22T01:18:15.584Z,63.10
2022-10-22T01:21:00.906Z,61.77
2022-10-22T01:24:03.386Z,60.40
2022-10-22T01:26:44.769Z,62.83
2022-10-22T01:29:17.806Z,63.83
2022-10-22T01:31:50.174Z,63.97
2022-10-22T01:34:19.655Z,63.03
2022-10-22T01:36:49.075Z,61.77
2022-10-22T01:39:18.713Z,64.70
2022-10-22T01:41:46.348Z,69.10
2022-10-22T01:44:30.254Z,65.40
2022-10-22T01:47:11.841Z,66.93
2022-10-22T01:49:57.267Z,72.67
2022-10-22T01:52:32.343Z,69.63
2022-10-22T01:55:08.099Z,71.50
2022-10-22T01:57:45.181Z,66.30
2022-10-22T02:00:15.936Z,67.80
2022-10-22T02:02:50.556Z,62.93
2022-10-22T02:05:23.456Z,67.87
2022-10-22T02:07:58.531Z,70.60
2022-10-22T02:10:26.273Z,67.17
2022-10-22T02:12:56.850Z,66.10
2022-10-22T02:15:28.353Z,63.77
2022-10-22T02:17:59.506Z,60.37
2022-10-22T02:20:29.522Z,63.10
2022-10-22T02:22:58.306Z,60.77
2022-10-22T02:25:28.691Z,65.40
2022-10-22T02:28:03.582Z,79.80
2022-10-22T02:30:34.823Z,68.63
2022-10-22T02:33:06.131Z,87.90
2022-10-22T02:35:34.098Z,76.10
2022-10-22T02:38:02.514Z,75.53
2022-10-22T02:40:32.182Z,74.00
2022-10-22T02:42:59.957Z,65.73
2022-10-22T02:45:28.117Z,74.80
2022-10-22T02:47:57.013Z,70.50
2022-10-22T02:50:24.553Z,66.90
2022-10-22T02:52:52.091Z,70.00
2022-10-22T02:55:19.674Z,80.00
2022-10-22T02:57:47.242Z,98.93
2022-10-22T03:00:15.697Z,72.33
2022-10-22T03:02:43.250Z,72.30
2022-10-22T03:05:12.188Z,72.90
2022-10-22T03:07:39.920Z,77.30
2022-10-22T03:10:08.619Z,74.03
2022-10-22T03:12:36.186Z,70.60
2022-10-22T03:15:04.206Z,76.53
2022-10-22T03:17:31.740Z,69.90
2022-10-22T03:19:59.277Z,69.53
2022-10-22T03:22:30.901Z,73.53
2022-10-22T03:25:01.095Z,72.30
2022-10-22T03:27:30.347Z,78.80
2022-10-22T03:29:59.631Z,289.20
2022-10-22T03:32:27.208Z,192.53
2022-10-22T03:34:54.892Z,75.90
2022-10-22T03:37:23.362Z,151.10
2022-10-22T03:39:53.035Z,122.47
2022-10-22T03:42:21.249Z,68.40
2022-10-22T03:44:48.943Z,90.80
2022-10-22T03:47:16.637Z,130.73
2022-10-22T03:49:44.239Z,132.23
2022-10-22T03:52:14.869Z,74.53
2022-10-22T03:54:43.035Z,436.13
2022-10-22T03:57:12.533Z,409.27
2022-10-22T03:59:42.577Z,319.07
2022-10-22T04:02:10.678Z,289.70
2022-10-22T04:04:38.932Z,212.03
2022-10-22T04:07:07.944Z,139.97
2022-10-22T04:09:35.856Z,95.80
2022-10-22T04:12:05.438Z,153.70
2022-10-22T04:14:35.022Z,349.63
2022-10-22T04:17:02.653Z,239.17
2022-10-22T04:19:30.406Z,100.30
2022-10-22T04:21:59.104Z,236.47
2022-10-22T04:24:27.144Z,110.00
2022-10-22T04:26:55.618Z,383.60
2022-10-22T04:29:23.161Z,152.40
2022-10-22T04:31:52.167Z,293.70
2022-10-22T04:34:19.723Z,226.30
2022-10-22T04:36:47.279Z,131.43
2022-10-22T04:39:15.694Z,178.53
2022-10-22T04:41:43.336Z,478.30
2022-10-22T04:44:13.663Z,179.77
2022-10-22T04:46:44.662Z,214.77
2022-10-22T04:49:13.570Z,351.10
2022-10-22T04:51:41.318Z,138.53
2022-10-22T04:54:08.954Z,517.77
2022-10-22T04:56:36.470Z,290.17
2022-10-22T04:59:05.902Z,526.53
2022-10-22T05:01:39.897Z,540.90
2022-10-22T05:04:14.956Z,820.83
2022-10-22T05:06:42.902Z,553.17
2022-10-22T05:09:14.276Z,532.37
2022-10-22T05:11:48.214Z,718.47
2022-10-22T05:14:17.966Z,418.70
2022-10-22T05:16:48.124Z,530.50
2022-10-22T05:19:20.898Z,721.30
2022-10-22T05:21:48.541Z,597.30
2022-10-22T05:24:16.097Z,980.20
2022-10-22T05:26:43.681Z,187.27
2022-10-22T05:29:11.205Z,185.03
2022-10-22T05:31:39.084Z,193.70
2022-10-22T05:34:06.615Z,251.70
2022-10-22T05:36:35.506Z,629.80
2022-10-22T05:39:03.158Z,254.03
2022-10-22T05:41:30.849Z,628.80
2022-10-22T05:43:59.716Z,379.30
2022-10-22T05:46:29.551Z,667.53
2022-10-22T05:48:59.060Z,253.63
2022-10-22T05:51:28.601Z,230.73
2022-10-22T05:53:59.831Z,670.83
2022-10-22T05:56:28.606Z,631.93
2022-10-22T05:58:57.311Z,507.80
2022-10-22T06:01:27.322Z,252.63
2022-10-22T06:03:55.627Z,527.63
2022-10-22T06:06:28.470Z,786.17
2022-10-22T06:09:00.911Z,299.13
2022-10-22T06:11:31.125Z,294.40
2022-10-22T06:14:01.806Z,416.20
2022-10-22T06:16:29.908Z,247.57
2022-10-22T06:18:57.478Z,865.97
2022-10-22T06:21:25.106Z,704.17
2022-10-22T06:23:52.651Z,658.03
2022-10-22T06:26:21.521Z,273.37
2022-10-22T06:28:49.183Z,361.03
2022-10-22T06:31:16.991Z,630.77
2022-10-22T06:33:44.850Z,301.47
2022-10-22T06:36:14.731Z,506.53
2022-10-22T06:38:42.839Z,378.77
2022-10-22T06:41:13.025Z,301.40
2022-10-22T06:43:42.034Z,317.83
2022-10-22T06:46:14.688Z,289.63
2022-10-22T06:48:49.333Z,298.43
2022-10-22T06:51:16.970Z,477.00
2022-10-22T06:53:44.649Z,596.57
2022-10-22T06:56:14.450Z,475.13
2022-10-22T06:58:43.664Z,572.37
2022-10-22T07:01:13.672Z,557.10
2022-10-22T07:03:42.491Z,414.97
2022-10-22T07:06:11.798Z,569.13
2022-10-22T07:08:40.489Z,698.97
2022-10-22T07:11:09.991Z,446.47
2022-10-22T07:13:37.962Z,436.33
2022-10-22T07:16:08.670Z,510.60
2022-10-22T07:18:37.745Z,687.00
2022-10-22T07:21:06.186Z,433.20
2022-10-22T07:23:33.926Z,396.73
2022-10-22T07:26:02.466Z,351.20
2022-10-22T07:28:30.598Z,336.00
2022-10-22T07:30:58.169Z,575.67
2022-10-22T07:33:27.565Z,373.63
2022-10-22T07:35:58.866Z,324.10
2022-10-22T07:38:26.845Z,411.33
2022-10-22T07:40:54.434Z,416.73
2022-10-22T07:43:22.633Z,354.60
2022-10-22T07:45:50.407Z,277.27
2022-10-22T07:48:18.609Z,429.40
2022-10-22T07:50:47.524Z,309.87
2022-10-22T07:53:15.067Z,432.43
2022-10-22T07:55:42.641Z,322.70
2022-10-22T07:58:10.275Z,429.50
2022-10-22T08:00:38.264Z,280.87
2022-10-22T08:03:05.793Z,288.97
2022-10-22T08:05:33.347Z,352.47
2022-10-22T08:08:02.222Z,280.20
2022-10-22T08:10:29.853Z,610.23
2022-10-22T08:12:57.701Z,281.40
2022-10-22T08:15:27.130Z,292.73
2022-10-22T08:17:54.745Z,532.73
2022-10-22T08:20:22.783Z,544.97
2022-10-22T08:22:50.367Z,389.90
2022-10-22T08:25:19.565Z,286.17
2022-10-22T08:27:47.545Z,284.17
2022-10-22T08:30:15.574Z,277.83
2022-10-22T08:32:43.330Z,262.33
2022-10-22T08:35:14.078Z,279.20
2022-10-22T08:37:44.498Z,284.37
2022-10-22T08:40:24.238Z,260.53
2022-10-22T08:43:19.050Z,283.17
2022-10-22T08:45:57.635Z,277.87
2022-10-22T08:48:40.909Z,275.47
2022-10-22T08:51:13.774Z,267.83
2022-10-22T08:53:51.308Z,267.87
2022-10-22T08:56:23.263Z,267.97
2022-10-22T08:58:57.802Z,261.27
2022-10-22T09:01:34.060Z,253.10
2022-10-22T09:04:08.128Z,237.97
2022-10-22T09:06:38.615Z,220.70
2022-10-22T09:09:13.541Z,209.57
2022-10-22T09:11:46.795Z,188.03
2022-10-22T09:14:18.747Z,168.73
2022-10-22T09:17:06.138Z,154.23
2022-10-22T09:19:41.576Z,144.70
2022-10-22T09:22:19.310Z,134.73
2022-10-22T09:24:49.276Z,118.87
2022-10-22T09:27:20.263Z,107.17
2022-10-22T09:29:49.218Z,94.43
2022-10-22T09:32:18.094Z,89.13
2022-10-22T09:34:46.398Z,75.80
2022-10-22T09:37:18.358Z,69.10
2022-10-22T09:39:48.168Z,71.27
2022-10-22T09:42:19.870Z,64.13
2022-10-22T09:44:53.962Z,66.23
2022-10-22T09:47:42.891Z,65.07
2022-10-22T09:50:23.650Z,61.57
2022-10-22T09:52:59.158Z,63.40
2022-10-22T09:55:27.633Z,62.60
2022-10-22T09:57:57.771Z,59.80
2022-10-22T10:00:28.997Z,57.87
2022-10-22T10:02:58.134Z,61.83
2022-10-22T10:05:30.751Z,61.77
2022-10-22T10:07:58.401Z,59.90
2022-10-22T10:10:44.518Z,57.53
2022-10-22T10:13:29.589Z,61.60
2022-10-22T10:16:01.253Z,60.20
2022-10-22T10:18:43.430Z,62.93
2022-10-22T10:21:20.048Z,62.10
2022-10-22T10:23:57.573Z,58.33
2022-10-22T10:26:32.375Z,63.07
2022-10-22T10:29:15.426Z,61.97
2022-10-22T10:31:57.186Z,61.03
2022-10-22T10:34:37.360Z,61.30
2022-10-22T10:37:16.243Z,62.63
2022-10-22T10:39:56.892Z,60.03
2022-10-22T10:42:34.098Z,59.60
2022-10-22T10:45:16.866Z,64.00
2022-10-22T10:48:11.394Z,60.77
2022-10-22T10:50:49.121Z,60.40
2022-10-22T10:53:23.405Z,60.93
2022-10-22T10:56:00.758Z,57.83
2022-10-22T10:58:37.731Z,62.53
2022-10-22T11:01:20.160Z,59.13
2022-10-22T11:04:12.809Z,60.80
2022-10-22T11:06:40.838Z,58.53
2022-10-22T11:09:24.105Z,55.43
2022-10-22T11:11:56.011Z,56.60
2022-10-22T11:14:31.149Z,58.10
2022-10-22T11:17:06.055Z,56.00
2022-10-22T11:19:57.849Z,56.87
2022-10-22T11:22:32.778Z,56.90
2022-10-22T11:25:06.481Z,53.80
2022-10-22T11:27:40.314Z,55.03
2022-10-22T11:30:14.963Z,54.47
2022-10-22T11:32:47.373Z,54.03
2022-10-22T11:35:23.488Z,57.30
2022-10-22T11:37:55.841Z,56.90
2022-10-22T11:40:33.681Z,57.67
2022-10-22T11:43:06.113Z,54.10
2022-10-22T11:45:37.357Z,54.83
2022-10-22T11:48:18.812Z,54.80
2022-10-22T11:50:50.740Z,56.97
2022-10-22T11:53:21.074Z,55.50
2022-10-22T11:55:51.295Z,55.10
2022-10-22T11:58:42.232Z,55.23
2022-10-22T12:01:27.821Z,53.37
2022-10-22T12:04:18.911Z,53.90
2022-10-22T12:06:58.489Z,53.60
2022-10-22T12:09:30.094Z,50.47
2022-10-22T12:12:05.742Z,50.00
2022-10-22T12:14:35.534Z,45.47
2022-10-22T12:17:09.608Z,42.43
2022-10-22T12:19:40.582Z,39.13
2022-10-22T12:22:16.639Z,37.50
2022-10-22T12:24:46.721Z,37.83
2022-10-22T12:27:23.196Z,38.07
2022-10-22T12:29:55.963Z,37.00
2022-10-22T12:32:23.687Z,39.00
2022-10-22T12:34:53.611Z,39.30
2022-10-22T12:37:21.189Z,40.17
2022-10-22T12:39:48.760Z,40.40
2022-10-22T12:42:18.346Z,40.77
2022-10-22T12:44:45.981Z,39.90
2022-10-22T12:47:17.653Z,39.53
2022-10-22T12:49:49.111Z,38.03
2022-10-22T12:52:22.226Z,39.63
2022-10-22T12:54:54.694Z,39.30
2022-10-22T12:57:24.635Z,39.20
2022-10-22T12:59:53.014Z,39.37
2022-10-22T13:02:23.855Z,37.20
2022-10-22T13:05:18.739Z,38.27
2022-10-22T13:07:51.678Z,37.03
2022-10-22T13:10:24.453Z,34.50
2022-10-22T13:12:55.446Z,36.50
2022-10-22T13:15:34.451Z,36.50
2022-10-22T13:18:07.538Z,36.23
2022-10-22T13:20:37.356Z,36.67
2022-10-22T13:23:07.313Z,37.47
2022-10-22T13:25:37.294Z,36.53
2022-10-22T13:28:20.761Z,36.77
2022-10-22T13:30:54.418Z,37.47
2022-10-22T13:33:27.205Z,38.27
2022-10-22T13:35:56.469Z,38.27
2022-10-22T13:38:27.414Z,36.40
2022-10-22T13:40:55.483Z,38.60
2022-10-22T13:43:23.670Z,35.07
2022-10-22T13:45:55.239Z,38.20
2022-10-22T13:48:24.604Z,37.67
2022-10-22T13:50:54.008Z,36.87
2022-10-22T13:53:26.282Z,36.57
2022-10-22T13:55:54.158Z,34.63
2022-10-22T13:58:24.524Z,35.60
2022-10-22T14:00:55.574Z,37.93
2022-10-22T14:03:26.109Z,36.10
2022-10-22T14:05:53.833Z,37.87
2022-10-22T14:08:24.090Z,36.90
2022-10-22T14:10:53.791Z,37.10
2022-10-22T14:13:22.219Z,36.37
2022-10-22T14:15:52.372Z,36.53
2022-10-22T14:18:25.498Z,38.17
2022-10-22T14:20:56.024Z,38.27
2022-10-22T14:23:25.467Z,39.70
2022-10-22T14:25:56.146Z,40.47
2022-10-22T14:28:24.152Z,40.47
2022-10-22T14:30:52.461Z,39.73
2022-10-22T14:33:27.230Z,40.33
2022-10-22T14:35:59.422Z,40.23
2022-10-22T14:38:27.067Z,39.37
2022-10-22T14:40:56.039Z,41.00
2022-10-22T14:43:25.078Z,41.33
2022-10-22T14:45:53.176Z,41.87
2022-10-22T14:48:20.721Z,41.27
2022-10-22T14:50:49.453Z,43.70
2022-10-22T14:53:17.869Z,43.27
2022-10-22T14:55:47.327Z,43.43
2022-10-22T14:58:16.484Z,45.10
2022-10-22T15:00:44.902Z,44.57
2022-10-22T15:03:12.719Z,44.57
2022-10-22T15:05:43.323Z,44.00
2022-10-22T15:08:11.471Z,45.10
2022-10-22T15:10:39.268Z,44.07
2022-10-22T15:13:06.978Z,45.40
2022-10-22T15:15:39.673Z,43.67
2022-10-22T15:18:08.026Z,41.83
2022-10-22T15:20:35.600Z,42.63
2022-10-22T15:23:03.165Z,46.20
2022-10-22T15:25:31.074Z,44.13
2022-10-22T15:28:03.370Z,46.27
2022-10-22T15:30:38.063Z,44.40
2022-10-22T15:33:06.194Z,44.27
2022-10-22T15:35:33.771Z,46.00
2022-10-22T15:38:01.319Z,44.53
2022-10-22T15:40:28.866Z,44.30
2022-10-22T15:42:56.423Z,43.43
2022-10-22T15:45:24.976Z,43.90
2022-10-22T15:47:53.865Z,45.97
2022-10-22T15:50:21.554Z,46.70
2022-10-22T15:52:49.110Z,45.13
2022-10-22T15:55:16.846Z,43.60
2022-10-22T15:57:44.819Z,44.57
2022-10-22T16:00:13.578Z,43.57
2022-10-22T16:02:41.177Z,45.43
2022-10-22T16:05:10.940Z,43.80
2022-10-22T16:07:38.721Z,45.80
2022-10-22T16:10:07.867Z,42.77
2022-10-22T16:12:35.867Z,44.60
2022-10-22T16:15:03.505Z,44.03
2022-10-22T16:17:31.098Z,43.53
2022-10-22T16:19:58.778Z,46.67
2022-10-22T16:22:27.771Z,44.27
2022-10-22T16:24:55.314Z,43.40
2022-10-22T16:27:22.865Z,43.33
2022-10-22T16:29:50.866Z,44.30
2022-10-22T16:32:18.430Z,44.57
2022-10-22T16:34:45.953Z,45.03
2022-10-22T16:37:13.525Z,44.43
2022-10-22T16:39:42.382Z,43.57
2022-10-22T16:42:09.918Z,44.50
2022-10-22T16:44:37.471Z,43.33
2022-10-22T16:47:05.014Z,43.97
2022-10-22T16:49:32.562Z,46.00
2022-10-22T16:52:00.112Z,45.43
2022-10-22T16:54:27.722Z,44.53
2022-10-22T16:56:56.631Z,44.43
2022-10-22T16:59:24.502Z,45.07
2022-10-22T17:01:52.129Z,46.40
2022-10-22T17:04:19.691Z,44.83
2022-10-22T17:06:47.346Z,45.93
2022-10-22T17:09:15.368Z,47.17
2022-10-22T17:11:44.909Z,47.60
2022-10-22T17:14:14.067Z,47.87
2022-10-22T17:16:41.798Z,48.70
2022-10-22T17:19:11.679Z,49.70
2022-10-22T17:21:39.294Z,50.37
2022-10-22T17:24:07.118Z,49.87
2022-10-22T17:26:34.698Z,49.93
2022-10-22T17:29:02.237Z,48.47
2022-10-22T17:31:33.081Z,48.27
2022-10-22T17:34:00.777Z,47.93
2022-10-22T17:36:33.339Z,46.73
2022-10-22T17:39:06.710Z,49.60
2022-10-22T17:41:36.397Z,50.20
2022-10-22T17:44:05.839Z,49.57
2022-10-22T17:46:34.773Z,52.27
2022-10-22T17:49:04.992Z,50.07
2022-10-22T17:51:33.124Z,53.90
2022-10-22T17:54:01.716Z,52.90
2022-10-22T17:56:31.316Z,51.83
2022-10-22T17:58:59.720Z,51.30
2022-10-22T18:01:29.327Z,51.60
2022-10-22T18:04:01.487Z,52.17
2022-10-22T18:06:29.965Z,54.00
2022-10-22T18:08:57.851Z,53.00
2022-10-22T18:11:27.807Z,57.37
2022-10-22T18:13:57.038Z,57.13
2022-10-22T18:16:25.470Z,51.90
2022-10-22T18:18:54.743Z,54.00
2022-10-22T18:21:25.839Z,54.83
2022-10-22T18:23:54.191Z,54.57
2022-10-22T18:26:26.015Z,54.37
2022-10-22T18:28:54.636Z,54.93
2022-10-22T18:31:24.009Z,54.70
2022-10-22T18:36:28.365Z,54.97
2022-10-22T18:38:57.594Z,53.33
2022-10-22T18:41:26.181Z,52.37
2022-10-22T18:43:55.651Z,50.63
2022-10-22T18:46:23.916Z,48.97
2022-10-22T18:48:53.517Z,50.03
2022-10-22T18:51:21.662Z,49.67
2022-10-22T18:54:05.060Z,47.80
2022-10-22T18:56:42.063Z,48.30
2022-10-22T18:59:16.157Z,47.37
2022-10-22T19:01:43.704Z,48.07
2022-10-22T19:04:11.311Z,46.67
2022-10-22T19:06:41.759Z,46.43
2022-10-22T19:09:13.580Z,45.40
2022-10-22T19:11:41.298Z,45.30
2022-10-22T19:14:09.236Z,43.57
2022-10-22T19:16:37.570Z,43.30
2022-10-22T19:19:06.660Z,41.40
2022-10-22T19:21:34.831Z,41.03
2022-10-22T19:24:03.217Z,42.57
2022-10-22T19:26:32.411Z,40.23
2022-10-22T19:29:00.817Z,38.93
2022-10-22T19:31:31.102Z,38.87
2022-10-22T19:33:59.357Z,37.80
2022-10-22T19:36:29.019Z,37.60
2022-10-22T19:38:57.715Z,37.37
2022-10-22T19:41:26.953Z,37.27
2022-10-22T19:43:57.563Z,36.13
2022-10-22T19:46:27.292Z,36.10
2022-10-22T19:48:56.950Z,36.73
2022-10-22T19:51:27.133Z,36.80
2022-10-22T19:53:59.010Z,38.33
2022-10-22T19:56:26.658Z,36.00
2022-10-22T19:58:56.081Z,37.67
2022-10-22T20:01:23.708Z,38.40
2022-10-22T20:03:51.258Z,36.37
2022-10-22T20:06:18.874Z,37.20
2022-10-22T20:08:46.867Z,38.87
2022-10-22T20:11:18.470Z,37.47
2022-10-22T20:13:49.640Z,40.63
2022-10-22T20:16:22.932Z,40.63
2022-10-22T20:18:50.817Z,42.40
2022-10-22T20:21:19.903Z,42.73
2022-10-22T20:23:48.148Z,44.13
2022-10-22T20:26:15.681Z,45.40
2022-10-22T20:28:43.237Z,47.90
2022-10-22T20:31:11.627Z,46.73
2022-10-22T20:33:40.506Z,47.87
2022-10-22T20:36:10.007Z,48.57
2022-10-22T20:41:19.297Z,48.50
2022-10-22T20:43:47.642Z,47.57
2022-10-22T20:46:18.922Z,51.50
2022-10-22T20:48:48.143Z,50.27
2022-10-22T20:51:15.679Z,49.33
2022-10-22T20:53:43.337Z,49.50
2022-10-22T20:56:11.509Z,46.33
2022-10-22T20:58:39.225Z,51.90
2022-10-22T21:01:11.985Z,48.40
2022-10-22T21:03:40.119Z,51.77
2022-10-22T21:06:09.244Z,54.20
2022-10-22T21:08:36.784Z,53.03
2022-10-22T21:11:04.514Z,56.50
2022-10-22T21:13:32.662Z,56.30
2022-10-22T21:16:00.655Z,60.90
2022-10-22T21:18:28.181Z,60.33
2022-10-22T21:20:55.692Z,65.13
2022-10-22T21:23:24.564Z,65.60
2022-10-22T21:25:55.662Z,65.83
2022-10-22T21:28:23.266Z,69.87
2022-10-22T21:30:50.877Z,69.63
2022-10-22T21:33:18.525Z,76.20
2022-10-22T21:35:51.487Z,82.40
2022-10-22T21:38:19.042Z,80.43
2022-10-22T21:40:48.431Z,79.50
2022-10-22T21:43:16.653Z,80.27
2022-10-22T21:45:45.574Z,80.17
2022-10-22T21:48:13.871Z,85.77
2022-10-22T21:50:42.141Z,84.20
2022-10-22T21:53:10.134Z,87.57
2022-10-22T21:55:41.240Z,91.10
2022-10-22T21:58:10.181Z,95.40
2022-10-22T22:00:37.793Z,89.80
2022-10-22T22:03:08.089Z,92.43
2022-10-22T22:05:35.657Z,91.07
2022-10-22T22:08:03.282Z,95.57
2022-10-22T22:10:31.026Z,94.33
2022-10-22T22:12:58.646Z,92.10
2022-10-22T22:15:28.454Z,98.17
2022-10-22T22:17:56.053Z,98.80
2022-10-22T22:20:23.615Z,100.97
2022-10-22T22:22:51.242Z,105.87
2022-10-22T22:25:18.917Z,103.33
2022-10-22T22:27:46.497Z,102.50
2022-10-22T22:30:14.794Z,109.03
2022-10-22T22:32:43.671Z,106.20
2022-10-22T22:35:11.672Z,105.40
2022-10-22T22:37:39.307Z,108.83
2022-10-22T22:40:08.113Z,114.33
2022-10-22T22:42:35.715Z,112.77
2022-10-22T22:45:03.310Z,115.00
2022-10-22T22:47:31.118Z,120.90
2022-10-22T22:50:00.027Z,119.10
2022-10-22T22:52:27.560Z,122.90
2022-10-22T22:54:55.101Z,128.10
2022-10-22T22:57:22.626Z,124.00
2022-10-22T22:59:50.970Z,137.27
2022-10-22T23:02:18.542Z,134.20
2022-10-22T23:04:46.501Z,143.27
2022-10-22T23:07:15.407Z,144.90
2022-10-22T23:09:42.963Z,151.30
2022-10-22T23:12:10.533Z,152.90
2022-10-22T23:14:38.073Z,151.07
2022-10-22T23:17:05.654Z,153.20
2022-10-22T23:19:33.272Z,162.23
2022-10-22T23:22:00.882Z,160.67
2022-10-22T23:24:30.861Z,156.50
2022-10-22T23:27:01.783Z,158.63
2022-10-22T23:29:32.456Z,162.13
2022-10-22T23:32:02.102Z,165.90
2022-10-22T23:34:31.157Z,167.00
2022-10-22T23:36:59.894Z,165.73
2022-10-22T23:39:29.997Z,169.27
2022-10-22T23:41:58.494Z,172.87
2022-10-22T23:44:26.594Z,175.63
2022-10-22T23:46:55.118Z,175.63
2022-10-22T23:49:22.694Z,183.37
2022-10-22T23:51:50.256Z,178.67
2022-10-22T23:54:18.770Z,176.93
2022-10-22T23:56:48.196Z,182.03
2022-10-22T23:59:16.328Z,185.80
